createdAt,value
2019-02-07T00:03:08.647Z,15.10
2019-02-07T00:05:56.149Z,15.33
2019-02-07T00:13:46.373Z,15.50
2019-02-07T00:16:14.784Z,14.17
2019-02-07T00:18:45.223Z,13.37
2019-02-07T00:24:01.051Z,13.70
2019-02-07T00:26:48.684Z,13.40
2019-02-07T00:29:36.181Z,14.03
2019-02-07T00:32:04.573Z,14.70
2019-02-07T00:34:32.949Z,14.50
2019-02-07T00:37:22.171Z,14.00
2019-02-07T00:39:50.557Z,16.00
2019-02-07T00:42:18.944Z,15.00
2019-02-07T00:44:50.737Z,15.70
2019-02-07T00:47:36.540Z,15.00
2019-02-07T00:50:44.824Z,14.50
2019-02-07T00:53:32.460Z,16.23
2019-02-07T00:56:19.951Z,15.30
2019-02-07T00:59:07.732Z,14.73
2019-02-07T01:01:55.364Z,13.77
2019-02-07T01:04:23.747Z,13.07
2019-02-07T01:06:53.857Z,14.50
2019-02-07T01:12:09.679Z,14.33
2019-02-07T01:15:02.178Z,13.47
2019-02-07T01:17:27.407Z,14.80
2019-02-07T01:20:14.972Z,14.27
2019-02-07T01:25:37.827Z,13.93
2019-02-07T01:28:25.464Z,14.67
2019-02-07T01:30:53.847Z,13.87
2019-02-07T01:33:41.531Z,14.03
2019-02-07T01:36:09.905Z,12.47
2019-02-07T01:39:18.201Z,12.83
2019-02-07T01:45:00.396Z,14.03
2019-02-07T01:47:28.787Z,12.90
2019-02-07T01:49:57.160Z,12.70
2019-02-07T01:52:44.797Z,12.47
2019-02-07T01:55:53.084Z,12.70
2019-02-07T01:58:21.475Z,13.40
2019-02-07T02:06:16.951Z,12.80
2019-02-07T02:09:04.588Z,14.33
2019-02-07T02:11:52.080Z,13.33
2019-02-07T02:14:20.463Z,14.57
2019-02-07T02:17:08.095Z,13.37
2019-02-07T02:19:36.476Z,12.53
2019-02-07T02:22:24.106Z,13.67
2019-02-07T02:28:19.850Z,13.87
2019-02-07T02:30:48.232Z,13.43
2019-02-07T02:35:50.253Z,12.90
2019-02-07T02:38:18.673Z,12.53
2019-02-07T02:40:47.020Z,13.10
2019-02-07T02:43:34.519Z,13.60
2019-02-07T02:49:11.171Z,13.60
2019-02-07T02:51:58.799Z,14.07
2019-02-07T03:00:57.025Z,13.00
2019-02-07T03:03:44.535Z,13.60
2019-02-07T03:06:51.272Z,13.87
2019-02-07T03:12:14.325Z,14.63
2019-02-07T03:15:01.829Z,14.57
2019-02-07T03:18:10.120Z,13.10
2019-02-07T03:20:57.612Z,13.23
2019-02-07T03:24:04.373Z,14.03
2019-02-07T03:27:12.671Z,13.23
2019-02-07T03:32:35.439Z,13.07
2019-02-07T03:35:44.110Z,13.23
2019-02-07T03:38:31.612Z,12.20
2019-02-07T03:41:38.362Z,13.20
2019-02-07T03:44:46.679Z,13.43
2019-02-07T03:47:34.154Z,13.97
2019-02-07T03:50:21.732Z,12.87
2019-02-07T03:53:09.240Z,13.63
2019-02-07T03:56:15.986Z,11.70
2019-02-07T03:59:03.504Z,12.53
2019-02-07T04:02:10.242Z,11.67
2019-02-07T04:07:36.615Z,14.17
2019-02-07T04:10:44.917Z,13.00
2019-02-07T04:16:21.498Z,11.97
2019-02-07T04:21:44.700Z,13.17
2019-02-07T04:24:51.481Z,12.77
2019-02-07T04:27:58.229Z,13.50
2019-02-07T04:33:43.739Z,12.40
2019-02-07T04:39:06.691Z,12.40
2019-02-07T04:41:54.464Z,13.07
2019-02-07T04:44:41.968Z,10.97
2019-02-07T04:47:29.460Z,12.20
2019-02-07T04:50:16.967Z,12.40
2019-02-07T04:53:04.463Z,13.67
2019-02-07T04:58:50.192Z,12.03
2019-02-07T05:01:37.692Z,12.60
2019-02-07T05:04:44.477Z,12.80
2019-02-07T05:07:31.973Z,13.70
2019-02-07T05:10:19.473Z,12.27
2019-02-07T05:13:26.228Z,14.20
2019-02-07T05:19:08.699Z,14.13
2019-02-07T05:21:56.199Z,12.83
2019-02-07T05:24:43.700Z,15.03
2019-02-07T05:27:31.205Z,14.27
2019-02-07T05:30:18.703Z,12.90
2019-02-07T05:38:20.702Z,13.30
2019-02-07T05:41:08.208Z,14.10
2019-02-07T05:43:55.986Z,13.47
2019-02-07T05:46:50.753Z,13.20
2019-02-07T05:49:32.692Z,12.80
2019-02-07T05:52:20.199Z,12.97
2019-02-07T05:55:07.688Z,13.43
2019-02-07T05:57:55.203Z,13.37
2019-02-07T06:00:42.697Z,13.07
2019-02-07T06:06:09.162Z,13.30
2019-02-07T06:08:56.650Z,14.40
2019-02-07T06:12:03.412Z,11.97
2019-02-07T06:14:50.899Z,12.10
2019-02-07T06:20:45.890Z,13.00
2019-02-07T06:26:17.726Z,13.30
2019-02-07T06:29:05.278Z,14.33
2019-02-07T06:34:29.507Z,12.70
2019-02-07T06:39:53.248Z,13.70
2019-02-07T06:45:16.530Z,13.00
2019-02-07T06:50:39.370Z,11.03
2019-02-07T06:56:05.535Z,12.50
2019-02-07T06:58:55.183Z,14.03
2019-02-07T07:04:50.315Z,11.87
2019-02-07T07:07:37.926Z,14.73
2019-02-07T07:10:46.192Z,12.10
2019-02-07T07:13:33.695Z,12.70
2019-02-07T07:19:10.271Z,11.00
2019-02-07T07:21:57.764Z,8.60
2019-02-07T07:27:59.489Z,12.90
2019-02-07T07:31:06.233Z,11.87
2019-02-07T07:33:53.740Z,11.37
2019-02-07T07:39:30.316Z,12.30
2019-02-07T07:42:37.064Z,13.20
2019-02-07T07:45:45.367Z,12.60
2019-02-07T07:51:27.454Z,13.03
2019-02-07T07:54:34.215Z,12.30
2019-02-07T07:57:21.701Z,11.87
2019-02-07T08:05:58.943Z,11.43
2019-02-07T08:08:46.447Z,12.80
2019-02-07T08:11:33.936Z,12.53
2019-02-07T08:14:21.466Z,12.13
2019-02-07T08:17:08.959Z,13.23
2019-02-07T08:19:56.733Z,13.07
2019-02-07T08:22:44.223Z,12.50
2019-02-07T08:28:26.778Z,14.27
2019-02-07T08:31:33.499Z,12.60
2019-02-07T08:37:15.968Z,12.93
2019-02-07T08:40:03.475Z,11.90
2019-02-07T08:42:52.630Z,12.40
2019-02-07T08:45:40.126Z,11.93
2019-02-07T08:48:27.630Z,11.60
2019-02-07T08:51:15.115Z,11.97
2019-02-07T09:01:58.428Z,13.60
2019-02-07T09:04:46.026Z,10.97
2019-02-07T09:07:33.528Z,14.30
2019-02-07T09:10:21.060Z,15.20
2019-02-07T09:13:08.583Z,12.37
2019-02-07T09:16:15.356Z,13.37
2019-02-07T09:21:51.953Z,12.33
2019-02-07T09:24:39.453Z,11.87
2019-02-07T09:27:27.075Z,13.03
2019-02-07T09:33:08.804Z,12.97
2019-02-07T09:36:05.007Z,13.47
2019-02-07T09:41:34.634Z,13.23
2019-02-07T09:47:30.562Z,13.27
2019-02-07T09:50:18.067Z,11.00
2019-02-07T09:53:05.566Z,14.57
2019-02-07T09:55:53.081Z,12.53
2019-02-07T09:58:40.780Z,13.53
2019-02-07T10:01:28.297Z,12.50
2019-02-07T10:07:04.907Z,13.60
2019-02-07T10:09:52.697Z,10.50
2019-02-07T10:12:40.214Z,13.43
2019-02-07T10:15:48.527Z,13.13
2019-02-07T10:18:36.157Z,12.33
2019-02-07T10:23:59.147Z,13.07
2019-02-07T10:26:46.729Z,12.23
2019-02-07T10:29:34.381Z,12.47
2019-02-07T10:32:21.889Z,13.50
2019-02-07T10:35:09.378Z,13.10
2019-02-07T10:37:56.892Z,12.60
2019-02-07T10:41:03.753Z,13.23
2019-02-07T10:43:51.252Z,13.57
2019-02-07T10:49:33.468Z,13.67
2019-02-07T10:52:20.982Z,13.80
2019-02-07T10:55:08.499Z,12.80
2019-02-07T10:57:56.014Z,12.40
2019-02-07T11:01:04.308Z,12.10
2019-02-07T11:03:51.816Z,12.30
2019-02-07T11:06:39.348Z,12.87
2019-02-07T11:09:47.647Z,12.00
2019-02-07T11:15:50.261Z,14.13
2019-02-07T11:18:37.780Z,11.77
2019-02-07T11:21:44.627Z,11.27
2019-02-07T11:24:51.378Z,11.30
2019-02-07T11:27:38.886Z,11.40
2019-02-07T11:30:47.262Z,11.53
2019-02-07T11:33:34.778Z,11.70
2019-02-07T11:42:24.741Z,11.67
2019-02-07T11:45:12.297Z,10.60
2019-02-07T11:47:59.830Z,11.60
2019-02-07T11:50:47.568Z,12.03
2019-02-07T11:53:35.069Z,12.40
2019-02-07T12:04:45.058Z,11.17
2019-02-07T12:10:21.636Z,11.67
2019-02-07T12:13:09.150Z,12.40
2019-02-07T12:15:56.643Z,11.17
2019-02-07T12:19:04.935Z,10.20
2019-02-07T12:27:17.037Z,11.43
2019-02-07T12:30:05.048Z,11.07
2019-02-07T12:36:21.436Z,10.90
2019-02-07T12:39:08.958Z,10.27
2019-02-07T12:41:56.524Z,10.63
2019-02-07T12:44:44.072Z,9.40
2019-02-07T12:47:31.571Z,10.70
2019-02-07T12:50:19.092Z,9.50
2019-02-07T12:53:06.623Z,9.10
2019-02-07T12:56:14.924Z,8.67
2019-02-07T13:01:57.731Z,8.70
2019-02-07T13:04:45.244Z,8.40
2019-02-07T13:07:32.747Z,8.27
2019-02-07T13:10:20.253Z,9.17
2019-02-07T13:13:07.771Z,9.50
2019-02-07T13:16:14.714Z,8.30
2019-02-07T13:19:02.221Z,7.07
2019-02-07T13:21:49.724Z,6.10
2019-02-07T13:24:37.206Z,6.20
2019-02-07T13:27:44.137Z,6.13
2019-02-07T13:30:52.543Z,5.85
2019-02-07T13:33:40.044Z,4.47
2019-02-07T13:36:48.355Z,4.37
2019-02-07T13:39:55.103Z,4.60
2019-02-07T13:42:42.683Z,3.80
2019-02-07T13:45:49.554Z,3.50
2019-02-07T13:48:37.070Z,3.63
2019-02-07T13:51:24.847Z,2.70
2019-02-07T13:54:12.350Z,2.57
2019-02-07T13:56:59.863Z,2.60
2019-02-07T14:02:36.441Z,2.90
2019-02-07T14:05:44.738Z,2.70
2019-02-07T14:08:38.426Z,3.87
2019-02-07T14:11:21.478Z,2.97
2019-02-07T14:14:08.968Z,3.70
2019-02-07T14:16:56.539Z,3.90
2019-02-07T14:19:44.038Z,4.03
2019-02-07T14:22:31.542Z,3.00
2019-02-07T14:25:19.053Z,4.00
2019-02-07T14:33:34.326Z,2.90
2019-02-07T14:36:21.849Z,3.03
2019-02-07T14:39:09.340Z,3.00
2019-02-07T14:44:52.959Z,3.27
2019-02-07T14:47:23.069Z,2.70
2019-02-07T14:50:14.965Z,3.03
2019-02-07T14:52:40.841Z,3.00
2019-02-07T14:55:49.160Z,3.40
2019-02-07T14:58:17.548Z,2.50
2019-02-07T15:01:05.346Z,2.60
2019-02-07T15:03:33.720Z,3.07
2019-02-07T15:06:21.225Z,2.93
2019-02-07T15:11:37.060Z,3.07
2019-02-07T15:17:13.586Z,2.40
2019-02-07T15:19:41.966Z,2.37
2019-02-07T15:22:10.365Z,3.57
2019-02-07T15:24:38.735Z,4.33
2019-02-07T15:27:07.133Z,3.27
2019-02-07T15:29:54.745Z,2.63
2019-02-07T15:32:23.253Z,2.70
2019-02-07T15:34:53.942Z,3.80
2019-02-07T15:37:23.337Z,2.70
2019-02-07T15:43:39.796Z,2.60
2019-02-07T15:46:48.094Z,2.63
2019-02-07T15:49:56.392Z,2.93
2019-02-07T15:58:33.161Z,2.47
2019-02-07T16:01:20.690Z,3.13
2019-02-07T16:04:08.209Z,3.67
2019-02-07T16:12:46.934Z,2.43
2019-02-07T16:18:28.966Z,3.40
2019-02-07T16:20:57.347Z,3.10
2019-02-07T16:23:25.755Z,4.00
2019-02-07T16:25:54.108Z,3.37
2019-02-07T16:28:41.739Z,3.27
2019-02-07T16:31:50.032Z,3.57
2019-02-07T16:34:37.649Z,3.20
2019-02-07T16:37:45.942Z,3.70
2019-02-07T16:40:54.228Z,3.37
2019-02-07T16:43:43.574Z,3.90
2019-02-07T16:49:20.014Z,4.80
2019-02-07T16:52:07.512Z,3.73
2019-02-07T16:54:55.126Z,3.97
2019-02-07T17:00:16.281Z,4.00
2019-02-07T17:03:03.910Z,5.30
2019-02-07T17:05:51.529Z,3.30
2019-02-07T17:08:19.912Z,3.30
2019-02-07T17:13:35.727Z,3.70
2019-02-07T17:16:44.009Z,4.20
2019-02-07T17:19:31.501Z,3.07
2019-02-07T17:22:19.119Z,3.30
2019-02-07T17:25:08.470Z,3.93
2019-02-07T17:27:55.966Z,3.13
2019-02-07T17:30:24.347Z,2.70
2019-02-07T17:33:13.552Z,4.20
2019-02-07T17:36:01.046Z,3.53
2019-02-07T17:38:29.429Z,3.83
2019-02-07T17:40:57.803Z,3.30
2019-02-07T17:43:45.527Z,3.70
2019-02-07T17:46:53.813Z,3.30
2019-02-07T17:52:17.289Z,3.33
2019-02-07T17:54:45.693Z,2.90
2019-02-07T17:57:14.071Z,3.37
2019-02-07T18:00:01.813Z,3.27
2019-02-07T18:08:52.148Z,2.40
2019-02-07T18:11:39.765Z,2.57
2019-02-07T18:14:27.405Z,3.17
2019-02-07T18:17:14.927Z,3.30
2019-02-07T18:20:02.470Z,2.30
2019-02-07T18:25:58.031Z,2.73
2019-02-07T18:28:45.567Z,3.10
2019-02-07T18:31:33.198Z,2.97
2019-02-07T18:34:01.578Z,5.00
2019-02-07T18:36:29.954Z,5.83
2019-02-07T18:39:17.470Z,6.53
2019-02-07T18:41:45.846Z,5.20
2019-02-07T18:44:15.946Z,5.87
2019-02-07T18:47:03.567Z,7.60
2019-02-07T18:49:31.970Z,7.50
2019-02-07T18:52:19.473Z,7.37
2019-02-07T18:58:03.211Z,7.00
2019-02-07T19:01:11.502Z,8.18
2019-02-07T19:03:39.876Z,7.03
2019-02-07T19:06:27.676Z,8.30
2019-02-07T19:08:56.022Z,8.30
2019-02-07T19:11:43.518Z,8.57
2019-02-07T19:14:11.897Z,7.03
2019-02-07T19:16:59.385Z,6.67
2019-02-07T19:19:27.765Z,7.43
2019-02-07T19:21:57.480Z,7.50
2019-02-07T19:24:26.246Z,7.60
2019-02-07T19:27:13.872Z,7.67
2019-02-07T19:29:42.250Z,7.50
2019-02-07T19:32:10.628Z,7.23
2019-02-07T19:34:39.005Z,9.50
2019-02-07T19:39:54.853Z,7.50
2019-02-07T19:42:42.437Z,8.47
2019-02-07T19:45:52.686Z,8.50
2019-02-07T19:48:40.305Z,8.27
2019-02-07T19:51:08.690Z,8.70
2019-02-07T19:53:56.304Z,7.10
2019-02-07T19:56:24.682Z,4.97
2019-02-07T19:59:12.171Z,4.87
2019-02-07T20:04:33.526Z,9.30
2019-02-07T20:12:10.299Z,2.73
2019-02-07T20:15:18.591Z,3.03
2019-02-07T20:18:06.205Z,2.30
2019-02-07T20:20:53.838Z,2.00
2019-02-07T20:23:23.942Z,1.87
2019-02-07T20:25:52.324Z,4.50
2019-02-07T20:28:20.689Z,2.33
2019-02-07T20:33:17.556Z,2.40
2019-02-07T20:35:45.929Z,2.70
2019-02-07T20:38:54.204Z,2.83
2019-02-07T20:41:22.581Z,2.60
2019-02-07T20:46:38.392Z,2.27
2019-02-07T20:49:06.757Z,2.10
2019-02-07T20:51:35.135Z,2.10
2019-02-07T20:54:03.495Z,3.43
2019-02-07T20:56:31.875Z,3.30
2019-02-07T20:59:00.235Z,3.00
2019-02-07T21:01:28.631Z,2.17
2019-02-07T21:03:56.972Z,2.40
2019-02-07T21:06:44.601Z,2.03
2019-02-07T21:12:00.429Z,4.00
2019-02-07T21:14:28.796Z,3.47
2019-02-07T21:16:57.168Z,3.57
2019-02-07T21:19:25.682Z,1.50
2019-02-07T21:21:54.057Z,2.60
2019-02-07T21:24:41.626Z,4.10
2019-02-07T21:27:10.002Z,2.90
2019-02-07T21:29:38.432Z,1.00
2019-02-07T21:32:46.723Z,1.47
2019-02-07T21:38:21.915Z,1.20
2019-02-07T21:43:39.518Z,1.17
2019-02-07T21:46:07.885Z,1.20
2019-02-07T21:48:55.582Z,1.30
2019-02-07T21:51:43.202Z,1.40
2019-02-07T21:54:11.716Z,1.30
2019-02-07T21:56:59.337Z,2.13
2019-02-07T21:59:46.925Z,1.80
2019-02-07T22:02:34.490Z,1.30
2019-02-07T22:05:02.996Z,1.20
2019-02-07T22:07:31.367Z,1.10
2019-02-07T22:10:38.123Z,1.60
2019-02-07T22:13:46.435Z,1.20
2019-02-07T22:16:34.052Z,1.30
2019-02-07T22:19:21.682Z,1.30
2019-02-07T22:21:50.057Z,1.80
2019-02-07T22:24:37.692Z,1.47
2019-02-07T22:27:45.973Z,1.30
2019-02-07T22:30:54.258Z,1.37
2019-02-07T22:33:22.638Z,1.50
2019-02-07T22:35:51.017Z,1.30
2019-02-07T22:38:38.637Z,1.57
2019-02-07T22:41:07.025Z,1.37
2019-02-07T22:43:54.670Z,1.03
2019-02-07T22:46:23.041Z,1.20
2019-02-07T22:49:12.258Z,1.30
2019-02-07T22:51:40.625Z,1.43
2019-02-07T22:54:09.003Z,1.40
2019-02-07T22:56:56.617Z,1.30
2019-02-07T22:59:44.247Z,1.37
2019-02-07T23:02:31.934Z,1.10
2019-02-07T23:05:21.157Z,1.30
2019-02-07T23:07:49.529Z,1.70
2019-02-07T23:10:57.817Z,1.47
2019-02-07T23:13:45.310Z,1.33
2019-02-07T23:16:53.607Z,1.40
2019-02-07T23:19:41.169Z,1.60
2019-02-07T23:22:29.022Z,1.60
2019-02-07T23:27:31.179Z,1.93
2019-02-07T23:30:18.802Z,2.17
2019-02-07T23:33:06.485Z,2.40
2019-02-07T23:35:34.877Z,2.63
2019-02-07T23:38:22.430Z,2.67
2019-02-07T23:41:10.061Z,2.30
2019-02-07T23:44:18.350Z,2.37
2019-02-07T23:46:46.738Z,2.20
2019-02-07T23:49:15.114Z,3.47
2019-02-07T23:52:02.744Z,2.40
2019-02-07T23:54:32.833Z,2.47
2019-02-07T23:57:01.224Z,2.30
